Time;durP1;ratioP1;P1;durP2;ratioP2;P2;SDS_P1;SDS_P2;PMS_P1;PMS_P2;Temp;Humidity;BMP_temperature;BMP_pressure;BME280_temperature;BME280_humidity;BME280_pressure;Samples;Min_cycle;Max_cycle;Signal;HPM_P1;HPM_P2
2023/09/17 00:01:53;;;;;;;17.40;8.57;;;;;;;17.20;100.00;94873.03;5057286;28;20036;-83
2023/09/17 00:04:19;;;;;;;14.82;9.00;;;;;;;17.31;100.00;94862.22;5057114;28;20037;-83
2023/09/17 00:06:44;;;;;;;14.95;9.00;;;;;;;17.44;100.00;94871.22;5057076;28;20327;-83
2023/09/17 00:09:10;;;;;;;16.58;8.40;;;;;;;17.52;100.00;94873.16;5057959;28;20033;-83
2023/09/17 00:11:35;;;;;;;17.48;9.07;;;;;;;17.58;100.00;94857.94;5057082;28;20047;-83
2023/09/17 00:14:01;;;;;;;15.63;7.93;;;;;;;17.50;100.00;94851.47;5047163;28;20064;-83
2023/09/17 00:16:31;;;;;;;16.85;10.18;;;;;;;17.61;100.00;94855.47;5056428;28;20431;-83
2023/09/17 00:18:57;;;;;;;14.80;8.93;;;;;;;17.64;100.00;94854.84;5040478;28;20072;-83
2023/09/17 00:21:23;;;;;;;21.65;10.00;;;;;;;17.55;100.00;94856.66;5056613;28;20037;-83
2023/09/17 00:23:48;;;;;;;20.13;10.48;;;;;;;17.09;100.00;94858.44;5056514;28;20507;-83
2023/09/17 00:26:14;;;;;;;21.15;11.43;;;;;;;16.99;100.00;94863.88;5057625;28;20166;-83
2023/09/17 00:28:39;;;;;;;23.17;13.02;;;;;;;17.19;100.00;94860.06;5056601;28;20064;-83
2023/09/17 00:31:04;;;;;;;22.20;9.75;;;;;;;17.28;100.00;94863.59;5056604;28;20040;-83
2023/09/17 00:33:30;;;;;;;17.20;9.32;;;;;;;17.36;100.00;94868.19;5056455;28;20032;-83
2023/09/17 00:35:55;;;;;;;15.75;8.85;;;;;;;17.38;100.00;94868.69;5056434;28;20059;-83
2023/09/17 00:38:21;;;;;;;15.90;8.98;;;;;;;17.41;100.00;94863.88;5057424;28;20036;-83
2023/09/17 00:40:46;;;;;;;13.90;8.10;;;;;;;17.54;100.00;94857.75;5056319;28;20033;-83
2023/09/17 00:43:12;;;;;;;16.80;8.38;;;;;;;17.61;100.00;94860.75;5039374;28;20040;-83
2023/09/17 00:45:40;;;;;;;19.08;9.18;;;;;;;17.71;100.00;94857.09;5056050;28;20346;-83
2023/09/17 00:48:08;;;;;;;16.67;9.02;;;;;;;17.56;100.00;94852.13;5055896;28;20350;-83
2023/09/17 00:50:33;;;;;;;22.52;9.52;;;;;;;17.55;100.00;94851.38;5035776;28;20040;-83
2023/09/17 00:52:59;;;;;;;18.58;8.90;;;;;;;17.66;100.00;94854.56;5037373;28;20052;-83
2023/09/17 00:55:25;;;;;;;18.25;9.02;;;;;;;17.86;100.00;94860.47;5034309;28;20434;-83
2023/09/17 00:57:51;;;;;;;17.00;9.50;;;;;;;17.45;100.00;94854.25;5035325;28;20457;-83
2023/09/17 01:00:20;;;;;;;17.75;10.20;;;;;;;17.24;100.00;94860.00;5036319;28;20029;-83
2023/09/17 01:02:47;;;;;;;22.75;9.77;;;;;;;17.47;100.00;94860.00;5036070;28;20450;-83
2023/09/17 01:05:13;;;;;;;18.48;9.10;;;;;;;17.53;100.00;94854.31;5035981;28;20434;-84
2023/09/17 01:07:39;;;;;;;15.40;9.20;;;;;;;17.65;100.00;94850.34;5036133;28;20021;-83
2023/09/17 01:10:05;;;;;;;15.23;9.07;;;;;;;17.58;100.00;94845.47;5035921;28;20033;-83
2023/09/17 01:12:31;;;;;;;17.63;8.32;;;;;;;17.61;100.00;94846.75;5035586;28;20564;-83
2023/09/17 01:14:57;;;;;;;21.13;8.25;;;;;;;17.72;100.00;94844.63;5034840;28;20492;-83
2023/09/17 01:17:27;;;;;;;18.38;8.52;;;;;;;17.66;100.00;94844.75;5035085;28;20037;-83
2023/09/17 01:19:56;;;;;;;14.23;8.23;;;;;;;17.64;100.00;94846.91;5036321;28;20419;-83
2023/09/17 01:22:29;;;;;;;16.27;8.65;;;;;;;17.64;100.00;94843.47;5035710;28;20034;-83
2023/09/17 01:25:14;;;;;;;18.63;9.63;;;;;;;17.58;100.00;94840.16;5035919;28;20476;-83
2023/09/17 01:27:40;;;;;;;24.60;9.90;;;;;;;17.43;100.00;94843.97;5035266;28;20033;-83
2023/09/17 01:30:16;;;;;;;22.77;9.95;;;;;;;17.30;100.00;94837.59;5036652;28;20453;-83
2023/09/17 01:32:44;;;;;;;17.83;9.25;;;;;;;17.43;100.00;94833.38;5036634;28;20029;-83
2023/09/17 01:35:15;;;;;;;15.82;10.65;;;;;;;17.54;100.00;94833.91;5035803;28;20031;-83
2023/09/17 01:37:54;;;;;;;18.17;10.45;;;;;;;17.45;100.00;94839.13;5034996;28;20033;-83
2023/09/17 01:40:20;;;;;;;21.55;11.02;;;;;;;17.15;100.00;94837.94;5034952;28;20447;-83
2023/09/17 01:42:46;;;;;;;16.60;10.63;;;;;;;17.27;100.00;94843.50;5036317;28;20038;-83
2023/09/17 01:45:13;;;;;;;22.33;12.18;;;;;;;16.92;100.00;94846.56;5018598;28;20029;-83
2023/09/17 01:47:42;;;;;;;19.60;13.30;;;;;;;17.06;100.00;94840.50;5035273;28;20036;-83
2023/09/17 01:50:08;;;;;;;22.90;12.30;;;;;;;16.99;100.00;94835.59;5035648;28;20026;-83
2023/09/17 01:52:34;;;;;;;27.33;12.27;;;;;;;17.02;100.00;94835.00;5034694;28;20099;-83
2023/09/17 01:55:03;;;;;;;20.83;12.13;;;;;;;17.00;100.00;94834.53;5034352;28;20443;-83
2023/09/17 01:57:28;;;;;;;24.38;12.25;;;;;;;16.92;100.00;94838.63;5034441;28;20061;-83
2023/09/17 01:59:54;;;;;;;20.63;12.43;;;;;;;16.87;100.00;94845.88;5034420;28;20452;-83
2023/09/17 02:02:20;;;;;;;20.25;12.05;;;;;;;16.94;100.00;94849.69;5034512;28;20037;-83
2023/09/17 02:04:46;;;;;;;20.85;13.18;;;;;;;16.97;100.00;94850.97;5034813;28;20029;-83
2023/09/17 02:07:12;;;;;;;34.13;15.05;;;;;;;16.65;100.00;94844.72;5033256;28;20079;-83
2023/09/17 02:09:37;;;;;;;26.42;14.25;;;;;;;16.49;100.00;94844.22;5034848;28;20029;-83
2023/09/17 02:12:03;;;;;;;24.17;13.93;;;;;;;16.37;100.00;94842.81;5034615;28;20087;-83
2023/09/17 02:14:28;;;;;;;26.77;13.65;;;;;;;16.39;100.00;94847.81;5034517;28;20029;-83
2023/09/17 02:16:55;;;;;;;20.35;13.10;;;;;;;16.61;100.00;94852.44;5033835;28;20100;-83
2023/09/17 02:19:20;;;;;;;22.90;13.40;;;;;;;16.62;100.00;94850.56;5034471;28;20034;-83
2023/09/17 02:21:46;;;;;;;25.55;15.27;;;;;;;16.44;100.00;94855.66;5034858;28;20107;-83
2023/09/17 02:24:12;;;;;;;22.83;14.70;;;;;;;16.40;100.00;94847.50;5034572;28;20035;-83
2023/09/17 02:26:38;;;;;;;28.13;16.08;;;;;;;16.31;100.00;94859.88;5034195;28;20374;-83
2023/09/17 02:29:04;;;;;;;31.00;18.40;;;;;;;16.21;100.00;94852.09;5034014;28;20029;-83
2023/09/17 02:31:29;;;;;;;39.47;20.05;;;;;;;16.17;100.00;94851.88;5034574;28;20120;-83
2023/09/17 02:33:55;;;;;;;52.70;28.45;;;;;;;16.15;100.00;94840.81;5035179;28;20188;-83
2023/09/17 02:36:20;;;;;;;42.08;22.58;;;;;;;16.32;100.00;94834.19;5034573;28;20060;-83
2023/09/17 02:38:46;;;;;;;33.00;20.63;;;;;;;16.30;100.00;94839.78;5034131;28;20029;-83
2023/09/17 02:41:11;;;;;;;37.38;21.52;;;;;;;16.27;100.00;94847.50;5034055;28;20029;-83
2023/09/17 02:43:37;;;;;;;34.85;19.75;;;;;;;16.41;100.00;94853.59;5034302;28;20026;-83
2023/09/17 02:46:03;;;;;;;38.78;20.65;;;;;;;16.36;100.00;94838.59;5047611;28;20064;-83
2023/09/17 02:48:32;;;;;;;36.38;18.38;;;;;;;16.18;100.00;94831.53;5054149;28;20032;-83
2023/09/17 02:50:57;;;;;;;30.67;18.85;;;;;;;16.03;100.00;94836.00;5055640;28;20032;-83
2023/09/17 02:53:26;;;;;;;31.52;17.95;;;;;;;16.07;100.00;94838.88;5055572;28;20032;-83
2023/09/17 02:55:52;;;;;;;31.00;18.08;;;;;;;16.11;100.00;94837.19;5043585;28;20041;-83
2023/09/17 02:58:17;;;;;;;29.20;19.55;;;;;;;16.24;100.00;94849.66;5028789;28;20036;-83
2023/09/17 03:00:44;;;;;;;37.55;22.48;;;;;;;16.24;100.00;94840.94;5038975;28;20456;-83
2023/09/17 03:03:10;;;;;;;43.00;23.50;;;;;;;16.25;100.00;94839.84;5055431;28;20032;-83
2023/09/17 03:05:36;;;;;;;44.25;24.88;;;;;;;16.16;100.00;94831.06;5055370;28;20174;-83
2023/09/17 03:08:05;;;;;;;54.60;28.38;;;;;;;16.18;100.00;94840.25;5055272;28;20025;-83
2023/09/17 03:10:32;;;;;;;47.53;26.83;;;;;;;16.31;100.00;94841.34;5038977;28;20037;-83
2023/09/17 03:12:57;;;;;;;47.40;26.73;;;;;;;16.32;100.00;94835.00;5055612;28;20067;-83
2023/09/17 03:15:23;;;;;;;34.28;21.85;;;;;;;16.39;100.00;94826.66;5056523;28;20111;-83
2023/09/17 03:17:48;;;;;;;44.65;26.23;;;;;;;16.41;100.00;94829.81;5055532;28;20056;-83
2023/09/17 03:20:14;;;;;;;47.30;26.48;;;;;;;16.49;100.00;94831.75;5059304;28;20433;-83
2023/09/17 03:22:40;;;;;;;44.50;26.95;;;;;;;16.53;100.00;94840.69;5042824;28;20028;-83
2023/09/17 03:25:06;;;;;;;57.28;30.80;;;;;;;16.47;100.00;94833.91;5042949;28;20024;-83
2023/09/17 03:27:33;;;;;;;61.53;33.05;;;;;;;16.21;100.00;94834.38;5042867;28;20039;-83
2023/09/17 03:29:59;;;;;;;62.17;33.88;;;;;;;16.16;100.00;94831.81;5059385;28;20029;-83
2023/09/17 03:32:25;;;;;;;56.60;30.75;;;;;;;16.28;100.00;94833.22;5059225;28;20036;-83
2023/09/17 03:34:50;;;;;;;48.95;28.00;;;;;;;16.26;100.00;94838.78;5059208;28;20036;-83
2023/09/17 03:37:16;;;;;;;48.30;26.98;;;;;;;16.29;100.00;94830.28;5058876;28;20039;-83
2023/09/17 03:39:43;;;;;;;59.65;32.42;;;;;;;16.23;100.00;94829.59;5060203;28;20434;-83
2023/09/17 03:42:08;;;;;;;61.70;33.33;;;;;;;16.14;100.00;94833.19;5059268;28;20060;-83
2023/09/17 03:44:34;;;;;;;62.35;33.22;;;;;;;16.12;100.00;94833.47;5059015;28;20420;-83
2023/09/17 03:46:59;;;;;;;67.68;33.78;;;;;;;16.10;100.00;94838.28;5042365;28;20029;-83
2023/09/17 03:49:26;;;;;;;71.97;37.13;;;;;;;16.13;100.00;94840.34;5058937;28;20082;-83
2023/09/17 03:51:52;;;;;;;66.38;34.97;;;;;;;16.10;100.00;94830.34;5042527;28;20029;-83
2023/09/17 03:54:18;;;;;;;76.45;37.47;;;;;;;16.06;100.00;94830.13;5058853;28;20029;-83
2023/09/17 03:56:44;;;;;;;61.55;32.92;;;;;;;16.16;100.00;94841.63;5058684;28;20430;-83
2023/09/17 03:59:09;;;;;;;58.03;30.70;;;;;;;16.29;100.00;94838.22;5058875;28;20025;-83
2023/09/17 04:01:34;;;;;;;49.40;29.10;;;;;;;16.36;100.00;94841.25;5058710;28;20025;-83
2023/09/17 04:04:00;;;;;;;46.72;27.58;;;;;;;16.44;100.00;94845.06;5058847;28;20032;-83
2023/09/17 04:06:29;;;;;;;60.28;30.70;;;;;;;16.29;100.00;94848.00;5058468;28;20029;-83
2023/09/17 04:08:55;;;;;;;44.58;27.08;;;;;;;16.13;100.00;94852.75;5041882;28;20029;-83
2023/09/17 04:11:20;;;;;;;51.53;29.75;;;;;;;16.08;100.00;94848.34;5058411;28;20051;-82
2023/09/17 04:13:46;;;;;;;43.28;26.42;;;;;;;16.17;100.00;94859.81;5075314;28;20385;-82
2023/09/17 04:16:12;;;;;;;55.53;28.13;;;;;;;16.08;100.00;94856.28;5058066;28;20032;-82
2023/09/17 04:18:37;;;;;;;49.25;28.05;;;;;;;16.10;100.00;94854.91;5058149;28;20115;-83
2023/09/17 04:21:03;;;;;;;45.47;24.83;;;;;;;16.08;100.00;94851.78;5058356;28;20071;-83
2023/09/17 04:23:29;;;;;;;45.13;23.95;;;;;;;16.04;100.00;94852.63;5058239;28;20029;-83
2023/09/17 04:25:55;;;;;;;29.45;18.73;;;;;;;16.21;100.00;94857.38;5058297;28;20029;-83
2023/09/17 04:28:20;;;;;;;28.48;18.55;;;;;;;16.35;100.00;94860.03;5059230;28;20029;-83
2023/09/17 04:30:45;;;;;;;37.72;21.30;;;;;;;16.40;100.00;94863.38;5058342;28;20025;-83
2023/09/17 04:33:11;;;;;;;36.63;20.45;;;;;;;16.42;100.00;94857.81;5058050;28;20386;-83
2023/09/17 04:35:36;;;;;;;34.03;18.52;;;;;;;16.25;100.00;94861.00;5058122;28;20033;-83
2023/09/17 04:38:03;;;;;;;33.03;20.40;;;;;;;16.19;100.00;94864.81;5057877;28;20056;-84
2023/09/17 04:40:28;;;;;;;30.58;19.17;;;;;;;16.27;100.00;94864.13;5058039;28;20519;-84
2023/09/17 04:42:54;;;;;;;31.92;18.10;;;;;;;16.24;100.00;94862.09;5057981;28;20060;-83
2023/09/17 04:45:34;;;;;;;36.75;18.73;;;;;;;16.27;100.00;94863.38;5057743;28;20025;-83
2023/09/17 04:48:00;;;;;;;28.48;17.80;;;;;;;16.46;100.00;94869.38;5058871;28;20148;-83
2023/09/17 04:50:25;;;;;;;34.20;19.00;;;;;;;16.53;100.00;94869.78;5044205;28;20112;-83
2023/09/17 04:52:50;;;;;;;34.10;17.70;;;;;;;16.67;100.00;94863.72;5044207;28;20028;-83
2023/09/17 04:55:16;;;;;;;28.90;17.92;;;;;;;16.80;100.00;94868.22;5048038;28;20040;-83
2023/09/17 04:57:42;;;;;;;30.70;16.58;;;;;;;16.85;100.00;94869.97;5020974;28;20124;-83
2023/09/17 05:00:11;;;;;;;33.15;19.65;;;;;;;16.93;100.00;94877.22;5037966;28;20427;-83
2023/09/17 05:02:40;;;;;;;29.60;15.63;;;;;;;16.99;100.00;94877.94;5021816;28;20067;-83
2023/09/17 05:05:06;;;;;;;33.50;18.77;;;;;;;16.84;100.00;94876.34;5037667;28;20079;-83
2023/09/17 05:07:32;;;;;;;27.73;15.18;;;;;;;16.89;100.00;94878.13;5054030;28;20026;-83
2023/09/17 05:09:57;;;;;;;25.95;15.20;;;;;;;17.06;100.00;94880.97;5037521;28;20036;-83
2023/09/17 05:12:23;;;;;;;30.38;15.57;;;;;;;17.10;100.00;94883.81;5037498;28;20078;-83
2023/09/17 05:14:48;;;;;;;20.48;13.05;;;;;;;17.03;100.00;94876.28;5037433;28;20423;-83
2023/09/17 05:17:15;;;;;;;17.60;10.60;;;;;;;17.06;100.00;94878.31;5037382;28;20033;-83
2023/09/17 05:19:41;;;;;;;23.05;10.82;;;;;;;16.70;100.00;94870.28;5037139;28;20035;-83
2023/09/17 05:22:06;;;;;;;16.80;9.82;;;;;;;16.69;100.00;94874.78;5038407;28;20029;-83
2023/09/17 05:24:31;;;;;;;19.92;10.80;;;;;;;16.94;100.00;94873.50;5038406;28;20021;-83
2023/09/17 05:26:57;;;;;;;18.00;10.88;;;;;;;17.14;100.00;94882.13;5038557;28;20032;-83
2023/09/17 05:29:22;;;;;;;17.33;10.55;;;;;;;17.01;100.00;94875.78;5037141;28;20345;-83
2023/09/17 05:31:48;;;;;;;25.98;12.02;;;;;;;16.54;100.00;94881.13;5038275;28;20060;-83
2023/09/17 05:34:14;;;;;;;24.77;12.45;;;;;;;16.53;100.00;94890.94;5038062;28;20025;-83
2023/09/17 05:36:41;;;;;;;29.15;13.70;;;;;;;16.62;100.00;94879.66;5054816;28;20033;-83
2023/09/17 05:39:08;;;;;;;22.95;13.20;;;;;;;16.67;100.00;94892.81;5057915;28;20112;-83
2023/09/17 05:41:33;;;;;;;19.85;10.93;;;;;;;16.99;100.00;94887.72;5056058;28;20036;-83
2023/09/17 05:44:00;;;;;;;19.38;10.18;;;;;;;17.10;100.00;94889.13;5056716;28;20029;-83
2023/09/17 05:46:26;;;;;;;26.65;10.18;;;;;;;17.30;100.00;94887.91;5040467;28;20025;-83
2023/09/17 05:48:51;;;;;;;18.00;11.63;;;;;;;17.33;100.00;94889.19;5056599;28;20028;-83
2023/09/17 05:51:17;;;;;;;21.85;12.48;;;;;;;17.20;100.00;94886.25;5040205;28;20446;-83
2023/09/17 05:53:42;;;;;;;17.92;10.73;;;;;;;17.29;100.00;94886.34;5056601;28;20033;-82
2023/09/17 05:56:10;;;;;;;24.92;10.82;;;;;;;17.32;100.00;94880.44;5040006;28;20029;-82
2023/09/17 05:58:36;;;;;;;19.63;9.82;;;;;;;17.61;100.00;94891.78;5056354;28;20446;-82
2023/09/17 06:01:01;;;;;;;19.75;8.98;;;;;;;17.65;100.00;94882.16;5057534;28;20025;-83
2023/09/17 06:03:27;;;;;;;19.20;10.15;;;;;;;17.91;100.00;94884.97;5039981;28;20021;-82
2023/09/17 06:05:55;;;;;;;17.27;8.98;;;;;;;17.94;100.00;94889.72;5056773;28;20372;-82
2023/09/17 06:08:21;;;;;;;20.50;7.53;;;;;;;17.77;100.00;94887.69;5056032;28;20052;-82
2023/09/17 06:10:46;;;;;;;17.35;7.80;;;;;;;17.87;100.00;94888.56;5056167;28;20350;-82
2023/09/17 06:13:12;;;;;;;17.20;8.68;;;;;;;17.66;100.00;94889.81;5056171;28;20025;-82
2023/09/17 06:15:37;;;;;;;20.25;12.85;;;;;;;17.94;100.00;94889.72;5056205;28;20032;-83
2023/09/17 06:18:03;;;;;;;24.25;12.00;;;;;;;18.00;100.00;94898.28;5055830;28;20442;-82
2023/09/17 06:20:29;;;;;;;19.55;10.88;;;;;;;18.14;100.00;94900.13;5055872;28;20039;-82
2023/09/17 06:22:55;;;;;;;20.77;11.73;;;;;;;17.76;100.00;94907.34;5035966;28;20031;-83
2023/09/17 06:25:23;;;;;;;29.20;14.43;;;;;;;17.44;100.00;94909.09;5036090;28;20327;-83
2023/09/17 06:27:48;;;;;;;25.35;13.55;;;;;;;17.61;100.00;94919.03;5037119;28;20045;-83
2023/09/17 06:30:14;;;;;;;20.13;11.73;;;;;;;18.00;100.00;94913.44;5042713;28;20155;-83
2023/09/17 06:32:40;;;;;;;18.67;11.02;;;;;;;18.21;100.00;94909.22;5055943;28;20029;-83
2023/09/17 06:35:06;;;;;;;19.08;10.60;;;;;;;18.30;100.00;94914.63;5055906;28;20587;-83
2023/09/17 06:37:31;;;;;;;21.92;9.80;;;;;;;18.39;100.00;94911.22;5039484;28;20114;-83
2023/09/17 06:39:57;;;;;;;19.73;10.98;;;;;;;18.10;100.00;94913.22;5056886;28;20032;-83
2023/09/17 06:42:23;;;;;;;22.65;12.05;;;;;;;18.01;100.00;94918.44;5056335;28;20109;-83
2023/09/17 06:44:48;;;;;;;21.60;10.65;;;;;;;18.59;100.00;94929.28;5055656;28;20075;-82
2023/09/17 06:47:14;;;;;;;16.58;10.25;;;;;;;18.93;100.00;94927.06;5039067;28;20131;-84
2023/09/17 06:49:39;;;;;;;15.63;9.48;;;;;;;19.22;100.00;94925.78;5055587;28;20029;-83
2023/09/17 06:52:05;;;;;;;16.25;10.60;;;;;;;19.45;100.00;94918.53;5039145;28;20051;-83
2023/09/17 06:54:30;;;;;;;21.40;11.93;;;;;;;19.64;100.00;94917.44;5055202;28;20426;-82
2023/09/17 06:56:56;;;;;;;21.00;11.07;;;;;;;19.86;100.00;94915.72;5055335;28;20025;-83
2023/09/17 06:59:21;;;;;;;19.55;11.80;;;;;;;19.96;100.00;94926.06;5054994;28;20033;-82
2023/09/17 07:01:49;;;;;;;19.77;12.45;;;;;;;20.07;100.00;94921.22;5055349;28;20024;-82
2023/09/17 07:04:15;;;;;;;17.63;10.50;;;;;;;20.00;100.00;94923.59;5055703;28;20330;-83
2023/09/17 07:06:40;;;;;;;20.50;11.88;;;;;;;20.34;100.00;94916.66;5038901;28;20021;-84
2023/09/17 07:09:07;;;;;;;25.15;10.10;;;;;;;20.28;100.00;94913.38;5038693;28;20442;-83
2023/09/17 07:11:33;;;;;;;13.63;8.57;;;;;;;20.37;100.00;94910.72;5052441;28;20029;-81
2023/09/17 07:13:58;;;;;;;14.73;8.70;;;;;;;20.19;100.00;94917.94;5035754;28;20031;-83
2023/09/17 07:16:26;;;;;;;16.30;9.27;;;;;;;20.25;100.00;94918.56;5036454;28;20026;-82
2023/09/17 07:18:51;;;;;;;15.73;8.52;;;;;;;20.73;100.00;94919.38;5035116;28;20072;-81
2023/09/17 07:21:17;;;;;;;19.67;7.70;;;;;;;20.28;100.00;94923.25;5019091;28;20120;-82
2023/09/17 07:23:42;;;;;;;19.80;7.63;;;;;;;20.23;100.00;94924.19;5036524;28;20385;-82
2023/09/17 07:26:09;;;;;;;15.85;7.35;;;;;;;19.54;100.00;94931.81;5047990;28;20055;-82
2023/09/17 07:28:34;;;;;;;17.55;8.30;;;;;;;19.15;100.00;94928.13;5055053;28;20017;-82
2023/09/17 07:31:01;;;;;;;16.23;7.80;;;;;;;19.36;100.00;94934.41;5055334;28;20047;-81
2023/09/17 07:33:26;;;;;;;14.75;8.20;;;;;;;19.31;100.00;94933.81;5038700;28;20384;-81
2023/09/17 07:35:52;;;;;;;15.85;7.90;;;;;;;19.59;100.00;94938.88;5055472;28;20025;-81
2023/09/17 07:38:25;;;;;;;14.73;7.75;;;;;;;19.65;100.00;94934.94;5056057;28;20123;-81
2023/09/17 07:40:50;;;;;;;25.53;9.73;;;;;;;19.69;100.00;94940.44;5055150;28;20028;-82
2023/09/17 07:43:16;;;;;;;16.20;9.25;;;;;;;19.54;100.00;94946.97;5055167;28;20589;-82
2023/09/17 07:45:41;;;;;;;19.17;10.07;;;;;;;19.84;100.00;94944.50;5056140;28;20122;-82
2023/09/17 07:48:07;;;;;;;13.48;7.93;;;;;;;20.19;100.00;94947.97;5055956;28;20442;-82
2023/09/17 07:50:32;;;;;;;15.45;8.77;;;;;;;20.36;100.00;94942.94;5038573;28;20126;-82
2023/09/17 07:52:59;;;;;;;16.73;8.20;;;;;;;20.59;100.00;94954.97;5055284;28;20025;-82
2023/09/17 07:55:25;;;;;;;14.55;9.20;;;;;;;20.79;100.00;94958.03;5055098;28;20072;-82
2023/09/17 07:57:54;;;;;;;18.92;9.10;;;;;;;21.13;100.00;94952.94;5055884;28;20115;-81
2023/09/17 08:00:21;;;;;;;15.63;8.68;;;;;;;21.12;100.00;94952.16;5055109;28;20029;-82
2023/09/17 08:02:46;;;;;;;17.17;9.30;;;;;;;21.15;100.00;94940.06;5038539;28;20029;-82
2023/09/17 08:05:12;;;;;;;14.20;9.52;;;;;;;21.39;100.00;94936.06;5041045;28;20091;-82
2023/09/17 08:07:40;;;;;;;15.18;9.23;;;;;;;21.29;100.00;94937.97;5050530;28;20021;-82
2023/09/17 08:10:09;;;;;;;19.73;10.48;;;;;;;21.41;100.00;94953.25;5055003;28;20409;-82
2023/09/17 08:12:35;;;;;;;18.58;10.25;;;;;;;21.58;100.00;94948.94;5054939;28;20034;-82
2023/09/17 08:15:01;;;;;;;22.58;12.13;;;;;;;21.36;100.00;94953.44;5039683;28;20029;-82
2023/09/17 08:17:26;;;;;;;21.98;11.88;;;;;;;21.33;100.00;94946.88;5054940;28;20033;-82
2023/09/17 08:19:52;;;;;;;27.17;12.48;;;;;;;21.64;100.00;94952.97;5055468;28;20036;-82
2023/09/17 08:22:17;;;;;;;24.90;12.15;;;;;;;21.53;100.00;94949.13;5055271;28;20026;-82
2023/09/17 08:24:43;;;;;;;27.40;13.68;;;;;;;21.68;100.00;94951.25;5055234;28;20034;-82
2023/09/17 08:27:09;;;;;;;23.83;12.93;;;;;;;21.73;100.00;94947.63;5038394;28;20031;-82
2023/09/17 08:29:34;;;;;;;23.17;13.35;;;;;;;22.00;100.00;94958.88;5039476;28;20032;-83
2023/09/17 08:32:00;;;;;;;25.63;14.00;;;;;;;21.97;100.00;94956.88;5054844;28;20029;-82
2023/09/17 08:34:26;;;;;;;21.33;12.93;;;;;;;22.09;100.00;94951.56;5039345;28;20052;-82
2023/09/17 08:36:51;;;;;;;23.45;13.45;;;;;;;22.20;100.00;94956.50;5038201;28;20034;-83
2023/09/17 08:39:17;;;;;;;28.55;12.65;;;;;;;22.23;100.00;94951.31;5054981;28;20037;-82
2023/09/17 08:41:42;;;;;;;24.75;13.52;;;;;;;21.74;100.00;94955.31;5038034;28;20394;-82
2023/09/17 08:44:08;;;;;;;26.38;13.00;;;;;;;21.85;100.00;94958.34;5038061;28;20075;-82
2023/09/17 08:46:35;;;;;;;25.95;12.90;;;;;;;22.28;100.00;94955.66;5037892;28;20091;-82
2023/09/17 08:49:01;;;;;;;21.08;12.90;;;;;;;22.22;100.00;94959.63;5054425;28;20506;-83
2023/09/17 08:51:30;;;;;;;22.77;14.18;;;;;;;21.56;100.00;94961.81;5055093;28;20123;-82
2023/09/17 08:54:04;;;;;;;19.30;12.48;;;;;;;22.24;100.00;94962.78;5039957;28;20117;-82
2023/09/17 08:56:32;;;;;;;31.85;14.88;;;;;;;22.38;100.00;94960.59;5054524;28;20334;-82
2023/09/17 08:59:06;;;;;;;21.50;14.10;;;;;;;22.66;100.00;94961.94;5039728;28;20362;-83
2023/09/17 09:01:39;;;;;;;21.35;14.50;;;;;;;22.69;100.00;94967.41;5057633;28;20033;-81
2023/09/17 09:04:05;;;;;;;29.63;15.65;;;;;;;22.57;100.00;94959.34;5057945;28;20074;-82
2023/09/17 09:06:32;;;;;;;20.00;12.25;;;;;;;23.12;100.00;94967.25;5057396;28;20054;-82
2023/09/17 09:08:58;;;;;;;22.50;14.02;;;;;;;23.46;100.00;94967.19;5040907;28;20021;-82
2023/09/17 09:11:24;;;;;;;25.38;12.57;;;;;;;23.76;100.00;94956.97;5041112;28;20029;-82
2023/09/17 09:13:53;;;;;;;21.92;13.45;;;;;;;24.16;100.00;94958.13;5057679;28;20068;-82
2023/09/17 09:16:19;;;;;;;23.27;12.57;;;;;;;23.96;100.00;94962.53;5056229;28;20020;-82
2023/09/17 09:18:44;;;;;;;18.80;10.90;;;;;;;24.52;100.00;94960.97;5056942;28;20438;-83
2023/09/17 09:21:10;;;;;;;20.52;13.25;;;;;;;24.12;100.00;94968.75;5040881;28;20025;-82
2023/09/17 09:23:36;;;;;;;18.02;11.73;;;;;;;24.82;100.00;94966.00;5057094;28;20108;-82
2023/09/17 09:26:04;;;;;;;23.50;12.90;;;;;;;23.66;100.00;94962.78;5057133;28;20025;-82
2023/09/17 09:28:30;;;;;;;25.00;13.07;;;;;;;23.96;100.00;94965.19;5056980;28;20027;-82
2023/09/17 09:30:56;;;;;;;22.05;13.52;;;;;;;24.49;100.00;94959.00;5057008;28;20021;-82
2023/09/17 09:33:22;;;;;;;19.52;11.77;;;;;;;24.90;100.00;94961.59;5040250;28;20036;-82
2023/09/17 09:35:48;;;;;;;20.23;11.48;;;;;;;25.22;100.00;94957.00;5057000;28;20065;-82
2023/09/17 09:38:14;;;;;;;16.88;10.90;;;;;;;25.04;100.00;94959.28;5040326;28;20115;-82
2023/09/17 09:40:42;;;;;;;18.05;10.70;;;;;;;25.06;100.00;94964.28;5057555;28;20056;-82
2023/09/17 09:43:31;;;;;;;24.55;12.88;;;;;;;24.48;100.00;94962.81;5057935;28;20036;-82
2023/09/17 09:46:06;;;;;;;22.75;12.32;;;;;;;24.51;100.00;94962.91;5058039;28;20036;-82
2023/09/17 09:48:31;;;;;;;22.85;13.15;;;;;;;24.48;100.00;94960.13;5056684;28;20033;-82
2023/09/17 09:50:58;;;;;;;27.20;14.20;;;;;;;23.98;100.00;94954.94;5056534;28;20044;-82
2023/09/17 09:53:24;;;;;;;19.58;11.27;;;;;;;24.93;100.00;94953.63;5052327;28;20068;-82
2023/09/17 09:55:52;;;;;;;25.63;13.80;;;;;;;24.47;100.00;94958.56;5053880;28;20043;-82
2023/09/17 09:58:18;;;;;;;19.38;12.35;;;;;;;24.91;100.00;94957.81;5056463;28;20037;-82
2023/09/17 10:00:45;;;;;;;19.30;11.63;;;;;;;24.88;100.00;94961.16;5056596;28;20082;-82
2023/09/17 10:03:11;;;;;;;23.15;12.20;;;;;;;24.85;100.00;94962.63;5039701;28;20039;-82
2023/09/17 10:05:39;;;;;;;30.17;15.98;;;;;;;23.71;100.00;94959.91;5057082;28;20040;-83
2023/09/17 10:08:07;;;;;;;26.25;13.93;;;;;;;24.27;100.00;94953.09;5056146;28;20025;-83
2023/09/17 10:10:33;;;;;;;20.80;12.85;;;;;;;25.05;100.00;94949.31;5056251;28;20036;-82
2023/09/17 10:13:00;;;;;;;25.17;12.45;;;;;;;24.96;100.00;94952.19;5056443;28;20037;-83
2023/09/17 10:15:26;;;;;;;22.70;13.18;;;;;;;24.67;100.00;94957.56;5057408;28;20032;-83
2023/09/17 10:17:52;;;;;;;21.35;13.73;;;;;;;25.43;100.00;94945.22;5055915;28;20051;-82
2023/09/17 10:20:18;;;;;;;19.20;12.60;;;;;;;25.44;100.00;94949.47;5056319;28;20074;-82
2023/09/17 10:22:46;;;;;;;23.77;12.95;;;;;;;25.60;100.00;94954.06;5039582;28;20032;-82
2023/09/17 10:25:14;;;;;;;22.13;11.90;;;;;;;25.65;100.00;94951.88;5055940;28;20116;-82
2023/09/17 10:27:42;;;;;;;22.05;12.43;;;;;;;25.80;100.00;94958.31;5056720;28;20035;-82
2023/09/17 10:30:08;;;;;;;26.90;13.30;;;;;;;25.65;100.00;94962.59;5055887;28;20456;-82
2023/09/17 10:32:37;;;;;;;36.55;15.35;;;;;;;24.74;100.00;94964.22;5039700;28;20033;-82
2023/09/17 10:35:02;;;;;;;21.00;11.38;;;;;;;26.25;100.00;94963.44;5056192;28;20044;-82
2023/09/17 10:37:31;;;;;;;22.20;12.43;;;;;;;26.15;100.00;94953.28;5056781;28;20033;-82
2023/09/17 10:39:57;;;;;;;20.80;11.52;;;;;;;26.51;100.00;94959.34;5055726;28;20040;-83
2023/09/17 10:42:25;;;;;;;21.45;11.35;;;;;;;25.98;100.00;94956.00;5055719;28;20032;-82
2023/09/17 10:44:54;;;;;;;28.80;12.50;;;;;;;25.73;100.00;94954.69;5055533;28;20025;-83
2023/09/17 10:47:20;;;;;;;21.13;10.90;;;;;;;25.94;100.00;94951.69;5055290;28;20036;-82
2023/09/17 10:49:46;;;;;;;25.42;11.00;;;;;;;25.70;100.00;94948.16;5055820;28;20033;-82
2023/09/17 10:52:12;;;;;;;20.20;10.65;;;;;;;26.23;100.00;94949.59;5054220;28;20426;-82
2023/09/17 10:54:38;;;;;;;25.10;10.77;;;;;;;26.28;100.00;94951.25;5035670;28;20035;-82
2023/09/17 10:57:10;;;;;;;21.48;11.98;;;;;;;24.94;100.00;94941.78;5035363;28;20067;-82
2023/09/17 10:59:37;;;;;;;16.92;10.90;;;;;;;26.19;100.00;94936.13;5036910;28;20423;-82
2023/09/17 11:02:03;;;;;;;19.67;10.80;;;;;;;26.37;100.00;94944.50;5035982;28;20051;-82
2023/09/17 11:04:31;;;;;;;20.08;11.25;;;;;;;26.49;100.00;94943.59;5048066;28;20441;-82
2023/09/17 11:07:00;;;;;;;22.02;10.63;;;;;;;25.65;100.00;94943.81;5055672;28;20020;-82
2023/09/17 11:09:26;;;;;;;22.88;10.60;;;;;;;26.00;100.00;94939.56;5055512;28;20021;-82